sensor_id;sensor_type;location;lat;lon;timestamp;temperature;humidity
54082;DHT22;39986;50.770;0.266;2022-12-29T00:01:18;10.10;99.90
54082;DHT22;39986;50.770;0.266;2022-12-29T00:03:46;10.20;99.90
54082;DHT22;39986;50.770;0.266;2022-12-29T00:06:12;10.20;99.90
54082;DHT22;39986;50.770;0.266;2022-12-29T00:08:37;10.30;99.90
54082;DHT22;39986;50.770;0.266;2022-12-29T00:11:08;10.30;99.90
54082;DHT22;39986;50.770;0.266;2022-12-29T00:13:34;10.30;99.90
54082;DHT22;39986;50.770;0.266;2022-12-29T00:16:18;10.40;99.90
54082;DHT22;39986;50.770;0.266;2022-12-29T00:18:43;10.50;99.90
54082;DHT22;39986;50.770;0.266;2022-12-29T00:21:19;10.60;99.90
54082;DHT22;39986;50.770;0.266;2022-12-29T00:24:03;10.60;99.90
54082;DHT22;39986;50.770;0.266;2022-12-29T00:27:31;10.60;99.90
54082;DHT22;39986;50.770;0.266;2022-12-29T00:29:55;10.60;99.90
54082;DHT22;39986;50.770;0.266;2022-12-29T00:32:39;10.60;99.90
54082;DHT22;39986;50.770;0.266;2022-12-29T00:35:28;10.50;99.90
54082;DHT22;39986;50.770;0.266;2022-12-29T00:37:55;10.50;99.90
54082;DHT22;39986;50.770;0.266;2022-12-29T00:40:40;10.40;99.90
54082;DHT22;39986;50.770;0.266;2022-12-29T00:43:24;10.40;99.90
54082;DHT22;39986;50.770;0.266;2022-12-29T00:46:08;10.30;99.90
54082;DHT22;39986;50.770;0.266;2022-12-29T00:48:34;10.40;99.90
54082;DHT22;39986;50.770;0.266;2022-12-29T00:51:18;10.50;99.90
54082;DHT22;39986;50.770;0.266;2022-12-29T00:53:43;10.50;99.90
54082;DHT22;39986;50.770;0.266;2022-12-29T00:56:10;10.40;99.90
54082;DHT22;39986;50.770;0.266;2022-12-29T00:58:35;10.50;99.90
54082;DHT22;39986;50.770;0.266;2022-12-29T01:01:02;10.50;99.90
54082;DHT22;39986;50.770;0.266;2022-12-29T01:03:27;10.50;99.90
54082;DHT22;39986;50.770;0.266;2022-12-29T01:05:53;10.40;99.90
54082;DHT22;39986;50.770;0.266;2022-12-29T01:08:18;10.50;99.90
54082;DHT22;39986;50.770;0.266;2022-12-29T01:10:44;10.40;99.90
54082;DHT22;39986;50.770;0.266;2022-12-29T01:13:09;10.50;99.90
54082;DHT22;39986;50.770;0.266;2022-12-29T01:15:35;10.50;99.90
54082;DHT22;39986;50.770;0.266;2022-12-29T01:18:00;10.50;99.90
54082;DHT22;39986;50.770;0.266;2022-12-29T01:20:26;10.60;99.90
54082;DHT22;39986;50.770;0.266;2022-12-29T01:22:53;10.60;99.90
54082;DHT22;39986;50.770;0.266;2022-12-29T01:25:19;10.70;99.90
54082;DHT22;39986;50.770;0.266;2022-12-29T01:27:45;10.70;99.90
54082;DHT22;39986;50.770;0.266;2022-12-29T01:30:10;10.70;99.90
54082;DHT22;39986;50.770;0.266;2022-12-29T01:32:36;10.70;99.90
54082;DHT22;39986;50.770;0.266;2022-12-29T01:35:02;10.70;99.90
54082;DHT22;39986;50.770;0.266;2022-12-29T01:37:27;10.60;99.90
54082;DHT22;39986;50.770;0.266;2022-12-29T01:39:53;10.10;99.90
54082;DHT22;39986;50.770;0.266;2022-12-29T01:42:19;9.60;99.90
54082;DHT22;39986;50.770;0.266;2022-12-29T01:47:42;9.10;99.90
54082;DHT22;39986;50.770;0.266;2022-12-29T01:50:30;9.10;99.90
54082;DHT22;39986;50.770;0.266;2022-12-29T01:52:55;9.10;99.90
54082;DHT22;39986;50.770;0.266;2022-12-29T01:55:22;9.20;99.90
54082;DHT22;39986;50.770;0.266;2022-12-29T01:58:16;9.30;99.90
54082;DHT22;39986;50.770;0.266;2022-12-29T02:00:43;9.40;99.90
54082;DHT22;39986;50.770;0.266;2022-12-29T02:03:08;9.40;99.90
54082;DHT22;39986;50.770;0.266;2022-12-29T02:05:49;9.90;99.90
54082;DHT22;39986;50.770;0.266;2022-12-29T02:08:17;9.60;99.90
54082;DHT22;39986;50.770;0.266;2022-12-29T02:10:42;9.70;99.90
54082;DHT22;39986;50.770;0.266;2022-12-29T02:13:08;9.50;99.90
54082;DHT22;39986;50.770;0.266;2022-12-29T02:15:35;9.20;99.90
54082;DHT22;39986;50.770;0.266;2022-12-29T02:44:17;9.60;99.90
54082;DHT22;39986;50.770;0.266;2022-12-29T02:49:16;9.80;99.90
54082;DHT22;39986;50.770;0.266;2022-12-29T02:51:52;9.60;99.90
54082;DHT22;39986;50.770;0.266;2022-12-29T02:54:18;9.40;99.90
54082;DHT22;39986;50.770;0.266;2022-12-29T02:57:03;9.10;99.90
54082;DHT22;39986;50.770;0.266;2022-12-29T02:59:30;9.10;99.90
54082;DHT22;39986;50.770;0.266;2022-12-29T03:09:43;9.30;99.90
54082;DHT22;39986;50.770;0.266;2022-12-29T03:15:23;9.40;99.90
54082;DHT22;39986;50.770;0.266;2022-12-29T03:18:25;9.50;99.90
54082;DHT22;39986;50.770;0.266;2022-12-29T03:20:55;9.50;99.90
54082;DHT22;39986;50.770;0.266;2022-12-29T03:23:24;9.60;99.90
54082;DHT22;39986;50.770;0.266;2022-12-29T03:25:54;9.80;99.90
54082;DHT22;39986;50.770;0.266;2022-12-29T03:28:26;10.00;99.90
54082;DHT22;39986;50.770;0.266;2022-12-29T03:30:53;10.10;99.90
54082;DHT22;39986;50.770;0.266;2022-12-29T03:33:24;10.10;99.90
54082;DHT22;39986;50.770;0.266;2022-12-29T03:35:50;10.20;99.90
54082;DHT22;39986;50.770;0.266;2022-12-29T03:40:47;10.40;99.90
54082;DHT22;39986;50.770;0.266;2022-12-29T03:43:13;10.20;99.90
54082;DHT22;39986;50.770;0.266;2022-12-29T03:45:39;10.40;99.90
54082;DHT22;39986;50.770;0.266;2022-12-29T03:48:05;10.40;99.90
54082;DHT22;39986;50.770;0.266;2022-12-29T03:50:30;10.40;99.90
54082;DHT22;39986;50.770;0.266;2022-12-29T03:52:56;10.50;99.90
54082;DHT22;39986;50.770;0.266;2022-12-29T03:55:25;10.50;99.90
54082;DHT22;39986;50.770;0.266;2022-12-29T03:57:51;10.50;99.90
54082;DHT22;39986;50.770;0.266;2022-12-29T04:00:16;10.40;99.90
54082;DHT22;39986;50.770;0.266;2022-12-29T04:02:42;10.40;99.90
54082;DHT22;39986;50.770;0.266;2022-12-29T04:05:07;10.40;99.90
54082;DHT22;39986;50.770;0.266;2022-12-29T04:07:33;10.50;99.90
54082;DHT22;39986;50.770;0.266;2022-12-29T04:09:58;10.70;99.90
54082;DHT22;39986;50.770;0.266;2022-12-29T04:12:24;10.50;99.90
54082;DHT22;39986;50.770;0.266;2022-12-29T04:14:49;10.30;99.90
54082;DHT22;39986;50.770;0.266;2022-12-29T04:17:15;10.40;99.90
54082;DHT22;39986;50.770;0.266;2022-12-29T04:19:40;10.50;99.90
54082;DHT22;39986;50.770;0.266;2022-12-29T04:22:06;10.50;99.90
54082;DHT22;39986;50.770;0.266;2022-12-29T04:24:31;10.50;99.90
54082;DHT22;39986;50.770;0.266;2022-12-29T04:26:57;10.50;99.90
54082;DHT22;39986;50.770;0.266;2022-12-29T04:29:23;10.50;99.90
54082;DHT22;39986;50.770;0.266;2022-12-29T04:31:48;10.50;99.90
54082;DHT22;39986;50.770;0.266;2022-12-29T04:34:14;10.50;99.90
54082;DHT22;39986;50.770;0.266;2022-12-29T04:36:39;10.60;99.90
54082;DHT22;39986;50.770;0.266;2022-12-29T04:39:05;10.70;99.90
54082;DHT22;39986;50.770;0.266;2022-12-29T04:41:31;10.70;99.90
54082;DHT22;39986;50.770;0.266;2022-12-29T04:43:56;10.80;99.90
54082;DHT22;39986;50.770;0.266;2022-12-29T04:46:22;10.90;99.90
54082;DHT22;39986;50.770;0.266;2022-12-29T04:48:48;10.80;99.90
54082;DHT22;39986;50.770;0.266;2022-12-29T04:51:13;10.80;99.90
54082;DHT22;39986;50.770;0.266;2022-12-29T04:53:39;10.80;99.90
54082;DHT22;39986;50.770;0.266;2022-12-29T04:56:04;10.90;99.90
54082;DHT22;39986;50.770;0.266;2022-12-29T04:58:55;10.80;99.90
54082;DHT22;39986;50.770;0.266;2022-12-29T05:01:22;10.60;99.90
54082;DHT22;39986;50.770;0.266;2022-12-29T05:03:49;10.40;99.90
54082;DHT22;39986;50.770;0.266;2022-12-29T05:06:14;10.00;99.90
54082;DHT22;39986;50.770;0.266;2022-12-29T05:08:40;9.90;99.90
54082;DHT22;39986;50.770;0.266;2022-12-29T05:11:05;9.90;99.90
54082;DHT22;39986;50.770;0.266;2022-12-29T05:13:31;9.90;99.90
54082;DHT22;39986;50.770;0.266;2022-12-29T05:15:56;9.90;99.90
54082;DHT22;39986;50.770;0.266;2022-12-29T05:18:22;9.90;99.90
54082;DHT22;39986;50.770;0.266;2022-12-29T05:20:47;9.90;99.90
54082;DHT22;39986;50.770;0.266;2022-12-29T05:23:13;10.10;99.90
54082;DHT22;39986;50.770;0.266;2022-12-29T05:25:39;10.10;99.90
54082;DHT22;39986;50.770;0.266;2022-12-29T05:28:04;10.20;99.90
54082;DHT22;39986;50.770;0.266;2022-12-29T05:30:30;10.20;99.90
54082;DHT22;39986;50.770;0.266;2022-12-29T05:32:56;10.10;99.90
54082;DHT22;39986;50.770;0.266;2022-12-29T05:35:22;10.10;99.90
54082;DHT22;39986;50.770;0.266;2022-12-29T05:37:47;10.10;99.90
54082;DHT22;39986;50.770;0.266;2022-12-29T05:40:13;10.10;99.90
54082;DHT22;39986;50.770;0.266;2022-12-29T05:42:38;10.10;99.90
54082;DHT22;39986;50.770;0.266;2022-12-29T05:45:04;10.10;99.90
54082;DHT22;39986;50.770;0.266;2022-12-29T05:47:32;10.00;99.90
54082;DHT22;39986;50.770;0.266;2022-12-29T05:49:58;10.10;99.90
54082;DHT22;39986;50.770;0.266;2022-12-29T05:52:23;10.00;99.90
54082;DHT22;39986;50.770;0.266;2022-12-29T05:54:51;10.00;99.90
54082;DHT22;39986;50.770;0.266;2022-12-29T05:57:18;12.30;99.90
54082;DHT22;39986;50.770;0.266;2022-12-29T05:59:44;10.00;99.90
54082;DHT22;39986;50.770;0.266;2022-12-29T06:02:09;10.00;99.90
54082;DHT22;39986;50.770;0.266;2022-12-29T06:04:36;10.00;99.90
54082;DHT22;39986;50.770;0.266;2022-12-29T06:07:02;10.00;99.90
54082;DHT22;39986;50.770;0.266;2022-12-29T06:09:27;10.00;99.90
54082;DHT22;39986;50.770;0.266;2022-12-29T06:11:53;10.10;99.90
54082;DHT22;39986;50.770;0.266;2022-12-29T06:14:18;10.10;99.90
54082;DHT22;39986;50.770;0.266;2022-12-29T06:16:44;10.10;99.90
54082;DHT22;39986;50.770;0.266;2022-12-29T06:19:09;10.00;99.90
54082;DHT22;39986;50.770;0.266;2022-12-29T06:21:35;10.10;99.90
54082;DHT22;39986;50.770;0.266;2022-12-29T06:24:01;10.10;99.90
54082;DHT22;39986;50.770;0.266;2022-12-29T06:26:26;10.10;99.90
54082;DHT22;39986;50.770;0.266;2022-12-29T06:28:52;10.10;99.90
54082;DHT22;39986;50.770;0.266;2022-12-29T06:31:17;10.10;99.90
54082;DHT22;39986;50.770;0.266;2022-12-29T06:33:43;10.10;99.90
54082;DHT22;39986;50.770;0.266;2022-12-29T06:36:08;10.10;99.90
54082;DHT22;39986;50.770;0.266;2022-12-29T06:38:34;10.10;99.90
54082;DHT22;39986;50.770;0.266;2022-12-29T06:41:00;10.00;99.90
54082;DHT22;39986;50.770;0.266;2022-12-29T06:43:26;10.00;99.90
54082;DHT22;39986;50.770;0.266;2022-12-29T06:45:52;10.00;99.90
54082;DHT22;39986;50.770;0.266;2022-12-29T06:48:17;9.90;99.90
54082;DHT22;39986;50.770;0.266;2022-12-29T06:50:43;10.10;99.90
54082;DHT22;39986;50.770;0.266;2022-12-29T06:53:08;10.00;99.90
54082;DHT22;39986;50.770;0.266;2022-12-29T06:55:34;9.80;99.90
54082;DHT22;39986;50.770;0.266;2022-12-29T06:58:27;9.80;99.90
54082;DHT22;39986;50.770;0.266;2022-12-29T07:00:53;9.80;99.90
54082;DHT22;39986;50.770;0.266;2022-12-29T07:03:19;9.80;99.90
54082;DHT22;39986;50.770;0.266;2022-12-29T07:05:44;9.70;99.90
54082;DHT22;39986;50.770;0.266;2022-12-29T07:08:10;9.70;99.90
54082;DHT22;39986;50.770;0.266;2022-12-29T07:10:36;9.70;99.90
54082;DHT22;39986;50.770;0.266;2022-12-29T07:13:01;9.70;99.90
54082;DHT22;39986;50.770;0.266;2022-12-29T07:15:27;9.60;99.90
54082;DHT22;39986;50.770;0.266;2022-12-29T07:17:52;9.90;99.90
54082;DHT22;39986;50.770;0.266;2022-12-29T07:20:18;9.70;99.90
54082;DHT22;39986;50.770;0.266;2022-12-29T07:22:43;9.70;99.90
54082;DHT22;39986;50.770;0.266;2022-12-29T07:25:09;9.70;99.90
54082;DHT22;39986;50.770;0.266;2022-12-29T07:27:34;9.60;99.90
54082;DHT22;39986;50.770;0.266;2022-12-29T07:30:00;9.60;99.90
54082;DHT22;39986;50.770;0.266;2022-12-29T07:32:26;9.60;99.90
54082;DHT22;39986;50.770;0.266;2022-12-29T07:34:51;9.60;99.90
54082;DHT22;39986;50.770;0.266;2022-12-29T07:37:17;9.60;99.90
54082;DHT22;39986;50.770;0.266;2022-12-29T07:39:43;9.60;99.90
54082;DHT22;39986;50.770;0.266;2022-12-29T07:42:09;9.50;99.90
54082;DHT22;39986;50.770;0.266;2022-12-29T07:44:34;9.50;99.90
54082;DHT22;39986;50.770;0.266;2022-12-29T07:47:01;9.50;99.90
54082;DHT22;39986;50.770;0.266;2022-12-29T07:49:27;9.40;99.90
54082;DHT22;39986;50.770;0.266;2022-12-29T07:51:52;9.40;99.90
54082;DHT22;39986;50.770;0.266;2022-12-29T07:57:09;9.40;99.90
54082;DHT22;39986;50.770;0.266;2022-12-29T07:59:35;9.30;99.90
54082;DHT22;39986;50.770;0.266;2022-12-29T08:02:00;9.30;99.90
54082;DHT22;39986;50.770;0.266;2022-12-29T08:04:26;9.70;99.90
54082;DHT22;39986;50.770;0.266;2022-12-29T08:06:51;9.20;99.90
54082;DHT22;39986;50.770;0.266;2022-12-29T08:09:17;9.20;99.90
54082;DHT22;39986;50.770;0.266;2022-12-29T08:11:43;9.10;99.90
54082;DHT22;39986;50.770;0.266;2022-12-29T08:14:09;9.10;99.90
54082;DHT22;39986;50.770;0.266;2022-12-29T08:16:35;9.20;99.90
54082;DHT22;39986;50.770;0.266;2022-12-29T08:19:01;9.10;99.90
54082;DHT22;39986;50.770;0.266;2022-12-29T08:21:27;9.20;99.90
54082;DHT22;39986;50.770;0.266;2022-12-29T08:23:52;9.20;99.90
54082;DHT22;39986;50.770;0.266;2022-12-29T08:26:18;9.30;99.90
54082;DHT22;39986;50.770;0.266;2022-12-29T08:28:44;9.50;99.90
54082;DHT22;39986;50.770;0.266;2022-12-29T08:31:09;9.40;99.90
54082;DHT22;39986;50.770;0.266;2022-12-29T08:33:35;9.50;99.90
54082;DHT22;39986;50.770;0.266;2022-12-29T08:36:01;9.50;99.90
54082;DHT22;39986;50.770;0.266;2022-12-29T08:38:28;9.60;99.90
54082;DHT22;39986;50.770;0.266;2022-12-29T08:40:54;9.60;99.90
54082;DHT22;39986;50.770;0.266;2022-12-29T08:43:20;9.80;99.90
54082;DHT22;39986;50.770;0.266;2022-12-29T08:45:46;9.80;99.90
54082;DHT22;39986;50.770;0.266;2022-12-29T08:48:11;9.80;99.90
54082;DHT22;39986;50.770;0.266;2022-12-29T08:50:37;9.80;99.90
54082;DHT22;39986;50.770;0.266;2022-12-29T08:53:02;9.90;99.90
54082;DHT22;39986;50.770;0.266;2022-12-29T08:55:28;9.90;99.90
54082;DHT22;39986;50.770;0.266;2022-12-29T08:57:53;9.90;99.90
54082;DHT22;39986;50.770;0.266;2022-12-29T09:00:19;10.00;99.90
54082;DHT22;39986;50.770;0.266;2022-12-29T09:02:46;10.10;99.90
54082;DHT22;39986;50.770;0.266;2022-12-29T09:05:11;10.20;99.90
54082;DHT22;39986;50.770;0.266;2022-12-29T09:07:37;10.10;99.90
54082;DHT22;39986;50.770;0.266;2022-12-29T09:10:03;10.20;99.90
54082;DHT22;39986;50.770;0.266;2022-12-29T09:12:28;10.20;99.90
54082;DHT22;39986;50.770;0.266;2022-12-29T09:14:55;10.40;99.90
54082;DHT22;39986;50.770;0.266;2022-12-29T09:17:21;10.20;99.90
54082;DHT22;39986;50.770;0.266;2022-12-29T09:20:05;10.20;99.90
54082;DHT22;39986;50.770;0.266;2022-12-29T09:22:31;10.20;99.90
54082;DHT22;39986;50.770;0.266;2022-12-29T09:24:56;9.80;99.90
54082;DHT22;39986;50.770;0.266;2022-12-29T09:27:22;10.20;99.90
54082;DHT22;39986;50.770;0.266;2022-12-29T09:29:47;10.20;99.90
54082;DHT22;39986;50.770;0.266;2022-12-29T09:32:14;10.30;99.90
54082;DHT22;39986;50.770;0.266;2022-12-29T09:34:40;10.50;99.90
54082;DHT22;39986;50.770;0.266;2022-12-29T09:37:05;10.60;99.90
54082;DHT22;39986;50.770;0.266;2022-12-29T09:39:31;10.70;99.90
54082;DHT22;39986;50.770;0.266;2022-12-29T09:42:01;10.70;99.90
54082;DHT22;39986;50.770;0.266;2022-12-29T09:44:51;10.60;99.90
54082;DHT22;39986;50.770;0.266;2022-12-29T09:47:21;10.60;99.90
54082;DHT22;39986;50.770;0.266;2022-12-29T09:59:55;10.50;99.90
54082;DHT22;39986;50.770;0.266;2022-12-29T10:04:47;10.40;99.90
54082;DHT22;39986;50.770;0.266;2022-12-29T10:09:52;10.20;99.90
54082;DHT22;39986;50.770;0.266;2022-12-29T10:17:44;10.40;99.90
54082;DHT22;39986;50.770;0.266;2022-12-29T10:25:28;11.40;99.90
54082;DHT22;39986;50.770;0.266;2022-12-29T10:27:56;11.20;99.90
54082;DHT22;39986;50.770;0.266;2022-12-29T10:30:23;11.10;99.90
54082;DHT22;39986;50.770;0.266;2022-12-29T10:32:50;10.90;99.90
54082;DHT22;39986;50.770;0.266;2022-12-29T10:40:19;10.60;99.90
54082;DHT22;39986;50.770;0.266;2022-12-29T10:42:50;10.60;99.90
54082;DHT22;39986;50.770;0.266;2022-12-29T10:45:17;10.70;99.90
54082;DHT22;39986;50.770;0.266;2022-12-29T10:50:21;11.00;99.90
54082;DHT22;39986;50.770;0.266;2022-12-29T10:52:47;11.10;99.90
54082;DHT22;39986;50.770;0.266;2022-12-29T10:55:25;11.20;99.90
54082;DHT22;39986;50.770;0.266;2022-12-29T10:57:53;11.20;99.90
54082;DHT22;39986;50.770;0.266;2022-12-29T11:00:20;11.10;99.90
54082;DHT22;39986;50.770;0.266;2022-12-29T11:08:11;10.80;99.90
54082;DHT22;39986;50.770;0.266;2022-12-29T11:10:41;11.20;99.90
54082;DHT22;39986;50.770;0.266;2022-12-29T11:13:27;11.70;99.90
54082;DHT22;39986;50.770;0.266;2022-12-29T11:15:53;12.00;99.90
54082;DHT22;39986;50.770;0.266;2022-12-29T11:18:44;11.90;99.90
54082;DHT22;39986;50.770;0.266;2022-12-29T11:21:26;11.50;99.90
54082;DHT22;39986;50.770;0.266;2022-12-29T11:23:55;11.30;99.90
54082;DHT22;39986;50.770;0.266;2022-12-29T11:26:21;11.10;99.90
54082;DHT22;39986;50.770;0.266;2022-12-29T11:29:04;11.10;99.90
54082;DHT22;39986;50.770;0.266;2022-12-29T11:31:31;11.00;99.90
54082;DHT22;39986;50.770;0.266;2022-12-29T11:34:06;11.00;99.90
54082;DHT22;39986;50.770;0.266;2022-12-29T11:36:31;10.90;99.90
54082;DHT22;39986;50.770;0.266;2022-12-29T11:38:58;11.00;99.90
54082;DHT22;39986;50.770;0.266;2022-12-29T11:41:27;11.10;99.90
54082;DHT22;39986;50.770;0.266;2022-12-29T11:43:55;11.30;99.90
54082;DHT22;39986;50.770;0.266;2022-12-29T11:46:29;11.40;99.90
54082;DHT22;39986;50.770;0.266;2022-12-29T11:48:55;11.50;99.90
54082;DHT22;39986;50.770;0.266;2022-12-29T11:51:28;12.20;99.90
54082;DHT22;39986;50.770;0.266;2022-12-29T11:53:58;12.80;99.90
54082;DHT22;39986;50.770;0.266;2022-12-29T11:56:50;13.30;99.90
54082;DHT22;39986;50.770;0.266;2022-12-29T12:02:16;13.20;99.90
54082;DHT22;39986;50.770;0.266;2022-12-29T12:04:46;12.80;99.90
54082;DHT22;39986;50.770;0.266;2022-12-29T12:07:15;12.30;99.90
54082;DHT22;39986;50.770;0.266;2022-12-29T12:09:47;11.90;99.90
54082;DHT22;39986;50.770;0.266;2022-12-29T12:14:58;11.40;99.90
54082;DHT22;39986;50.770;0.266;2022-12-29T12:17:29;11.20;99.90
54082;DHT22;39986;50.770;0.266;2022-12-29T12:20:22;11.20;99.90
54082;DHT22;39986;50.770;0.266;2022-12-29T12:22:51;11.40;99.90
54082;DHT22;39986;50.770;0.266;2022-12-29T12:25:21;12.20;99.90
54082;DHT22;39986;50.770;0.266;2022-12-29T12:27:50;12.60;99.90
54082;DHT22;39986;50.770;0.266;2022-12-29T12:30:19;13.00;99.90
54082;DHT22;39986;50.770;0.266;2022-12-29T12:32:52;13.70;99.90
54082;DHT22;39986;50.770;0.266;2022-12-29T12:35:37;14.50;99.90
54082;DHT22;39986;50.770;0.266;2022-12-29T12:38:12;14.60;99.90
54082;DHT22;39986;50.770;0.266;2022-12-29T12:43:19;12.90;99.90
54082;DHT22;39986;50.770;0.266;2022-12-29T12:54:10;8.50;99.90
54082;DHT22;39986;50.770;0.266;2022-12-29T13:00:12;8.00;99.90
54082;DHT22;39986;50.770;0.266;2022-12-29T13:05:13;8.70;99.90
54082;DHT22;39986;50.770;0.266;2022-12-29T13:18:02;10.20;99.90
54082;DHT22;39986;50.770;0.266;2022-12-29T13:25:34;13.60;99.90
54082;DHT22;39986;50.770;0.266;2022-12-29T13:30:30;17.00;99.90
54082;DHT22;39986;50.770;0.266;2022-12-29T13:33:04;17.20;99.90
54082;DHT22;39986;50.770;0.266;2022-12-29T13:35:56;17.20;99.90
54082;DHT22;39986;50.770;0.266;2022-12-29T13:40:45;17.30;99.90
54082;DHT22;39986;50.770;0.266;2022-12-29T13:43:12;17.70;99.90
54082;DHT22;39986;50.770;0.266;2022-12-29T13:45:39;17.20;99.90
54082;DHT22;39986;50.770;0.266;2022-12-29T13:48:15;17.10;99.90
54082;DHT22;39986;50.770;0.266;2022-12-29T13:50:41;16.70;99.90
54082;DHT22;39986;50.770;0.266;2022-12-29T13:53:26;15.60;99.90
54082;DHT22;39986;50.770;0.266;2022-12-29T13:56:12;14.20;99.90
54082;DHT22;39986;50.770;0.266;2022-12-29T14:01:37;12.60;99.90
54082;DHT22;39986;50.770;0.266;2022-12-29T14:04:54;12.20;99.90
54082;DHT22;39986;50.770;0.266;2022-12-29T14:07:36;12.60;99.90
54082;DHT22;39986;50.770;0.266;2022-12-29T14:09:46;13.30;99.90
54082;DHT22;39986;50.770;0.266;2022-12-29T14:12:28;14.30;99.90
54082;DHT22;39986;50.770;0.266;2022-12-29T14:15:02;15.10;99.90
54082;DHT22;39986;50.770;0.266;2022-12-29T14:17:27;14.90;99.90
54082;DHT22;39986;50.770;0.266;2022-12-29T14:19:53;14.50;99.90
54082;DHT22;39986;50.770;0.266;2022-12-29T14:22:23;14.10;99.90
54082;DHT22;39986;50.770;0.266;2022-12-29T14:24:48;13.40;99.90
54082;DHT22;39986;50.770;0.266;2022-12-29T14:29:42;11.90;99.90
54082;DHT22;39986;50.770;0.266;2022-12-29T14:34:45;11.20;99.90
54082;DHT22;39986;50.770;0.266;2022-12-29T14:42:30;11.00;99.90
54082;DHT22;39986;50.770;0.266;2022-12-29T14:45:00;10.90;99.90
54082;DHT22;39986;50.770;0.266;2022-12-29T14:47:31;10.60;99.90
54082;DHT22;39986;50.770;0.266;2022-12-29T14:50:07;10.60;99.90
54082;DHT22;39986;50.770;0.266;2022-12-29T14:52:46;10.50;99.90
54082;DHT22;39986;50.770;0.266;2022-12-29T14:57:42;10.60;99.90
54082;DHT22;39986;50.770;0.266;2022-12-29T15:00:16;10.60;99.90
54082;DHT22;39986;50.770;0.266;2022-12-29T15:02:45;10.50;99.90
54082;DHT22;39986;50.770;0.266;2022-12-29T15:05:32;10.50;99.90
54082;DHT22;39986;50.770;0.266;2022-12-29T15:07:59;10.40;99.90
54082;DHT22;39986;50.770;0.266;2022-12-29T15:10:26;10.30;99.90
54082;DHT22;39986;50.770;0.266;2022-12-29T15:12:53;10.20;99.90
54082;DHT22;39986;50.770;0.266;2022-12-29T15:15:23;10.20;99.90
54082;DHT22;39986;50.770;0.266;2022-12-29T15:17:49;10.10;99.90
54082;DHT22;39986;50.770;0.266;2022-12-29T15:22:48;10.10;99.90
54082;DHT22;39986;50.770;0.266;2022-12-29T15:25:15;10.00;99.90
54082;DHT22;39986;50.770;0.266;2022-12-29T15:27:43;9.90;99.90
54082;DHT22;39986;50.770;0.266;2022-12-29T15:30:13;10.00;99.90
54082;DHT22;39986;50.770;0.266;2022-12-29T15:32:40;9.90;99.90
54082;DHT22;39986;50.770;0.266;2022-12-29T15:37:52;9.80;99.90
54082;DHT22;39986;50.770;0.266;2022-12-29T15:40:23;9.80;99.90
54082;DHT22;39986;50.770;0.266;2022-12-29T15:42:52;9.70;99.90
54082;DHT22;39986;50.770;0.266;2022-12-29T15:45:21;9.80;99.90
54082;DHT22;39986;50.770;0.266;2022-12-29T15:47:49;9.80;99.90
54082;DHT22;39986;50.770;0.266;2022-12-29T15:50:36;9.70;99.90
54082;DHT22;39986;50.770;0.266;2022-12-29T15:53:02;9.20;99.90
54082;DHT22;39986;50.770;0.266;2022-12-29T15:55:32;10.00;99.90
54082;DHT22;39986;50.770;0.266;2022-12-29T15:58:01;11.80;99.90
54082;DHT22;39986;50.770;0.266;2022-12-29T16:00:28;9.40;99.90
54082;DHT22;39986;50.770;0.266;2022-12-29T16:02:54;9.50;99.90
54082;DHT22;39986;50.770;0.266;2022-12-29T16:05:21;9.50;99.90
54082;DHT22;39986;50.770;0.266;2022-12-29T16:07:56;9.50;99.90
54082;DHT22;39986;50.770;0.266;2022-12-29T16:10:25;9.40;99.90
54082;DHT22;39986;50.770;0.266;2022-12-29T16:12:51;9.40;99.90
54082;DHT22;39986;50.770;0.266;2022-12-29T16:15:17;9.40;99.90
54082;DHT22;39986;50.770;0.266;2022-12-29T16:17:47;9.40;99.90
54082;DHT22;39986;50.770;0.266;2022-12-29T16:20:20;9.40;99.90
54082;DHT22;39986;50.770;0.266;2022-12-29T16:22:47;9.40;99.90
54082;DHT22;39986;50.770;0.266;2022-12-29T16:27:42;9.20;99.90
54082;DHT22;39986;50.770;0.266;2022-12-29T16:30:24;9.20;99.90
54082;DHT22;39986;50.770;0.266;2022-12-29T16:32:51;9.20;99.90
54082;DHT22;39986;50.770;0.266;2022-12-29T16:35:18;9.10;99.90
54082;DHT22;39986;50.770;0.266;2022-12-29T16:37:44;9.10;99.90
54082;DHT22;39986;50.770;0.266;2022-12-29T16:47:46;9.10;99.90
54082;DHT22;39986;50.770;0.266;2022-12-29T16:50:13;9.10;99.90
54082;DHT22;39986;50.770;0.266;2022-12-29T16:52:42;9.10;99.90
54082;DHT22;39986;50.770;0.266;2022-12-29T16:55:14;9.10;99.90
54082;DHT22;39986;50.770;0.266;2022-12-29T16:57:40;9.10;99.90
54082;DHT22;39986;50.770;0.266;2022-12-29T17:00:17;9.10;99.90
54082;DHT22;39986;50.770;0.266;2022-12-29T17:02:43;9.00;99.90
54082;DHT22;39986;50.770;0.266;2022-12-29T17:05:16;9.10;99.90
54082;DHT22;39986;50.770;0.266;2022-12-29T17:07:42;9.00;99.90
54082;DHT22;39986;50.770;0.266;2022-12-29T17:10:08;9.00;99.90
54082;DHT22;39986;50.770;0.266;2022-12-29T17:12:35;10.20;99.90
54082;DHT22;39986;50.770;0.266;2022-12-29T17:15:02;9.10;99.90
54082;DHT22;39986;50.770;0.266;2022-12-29T17:19:56;9.10;99.90
54082;DHT22;39986;50.770;0.266;2022-12-29T17:22:25;9.10;99.90
54082;DHT22;39986;50.770;0.266;2022-12-29T17:24:51;9.10;99.90
54082;DHT22;39986;50.770;0.266;2022-12-29T17:28:00;9.10;99.90
54082;DHT22;39986;50.770;0.266;2022-12-29T17:30:11;9.10;99.90
54082;DHT22;39986;50.770;0.266;2022-12-29T17:33:06;9.20;99.90
54082;DHT22;39986;50.770;0.266;2022-12-29T17:35:34;9.20;99.90
54082;DHT22;39986;50.770;0.266;2022-12-29T17:38:00;9.60;99.90
54082;DHT22;39986;50.770;0.266;2022-12-29T17:40:26;9.40;99.90
54082;DHT22;39986;50.770;0.266;2022-12-29T17:42:53;9.20;99.90
54082;DHT22;39986;50.770;0.266;2022-12-29T17:45:20;9.80;99.90
54082;DHT22;39986;50.770;0.266;2022-12-29T17:47:47;9.20;99.90
54082;DHT22;39986;50.770;0.266;2022-12-29T17:50:14;9.20;99.90
54082;DHT22;39986;50.770;0.266;2022-12-29T17:52:40;9.10;99.90
54082;DHT22;39986;50.770;0.266;2022-12-29T17:57:57;9.10;99.90
54082;DHT22;39986;50.770;0.266;2022-12-29T18:00:24;9.10;99.90
54082;DHT22;39986;50.770;0.266;2022-12-29T18:02:52;9.10;99.90
54082;DHT22;39986;50.770;0.266;2022-12-29T18:05:22;9.50;99.90
54082;DHT22;39986;50.770;0.266;2022-12-29T18:07:50;9.00;99.90
54082;DHT22;39986;50.770;0.266;2022-12-29T18:10:16;9.10;99.90
54082;DHT22;39986;50.770;0.266;2022-12-29T18:12:45;9.20;99.90
54082;DHT22;39986;50.770;0.266;2022-12-29T18:15:21;9.10;99.90
54082;DHT22;39986;50.770;0.266;2022-12-29T18:17:48;9.10;99.90
54082;DHT22;39986;50.770;0.266;2022-12-29T18:20:14;9.10;99.90
54082;DHT22;39986;50.770;0.266;2022-12-29T18:22:39;9.00;99.90
54082;DHT22;39986;50.770;0.266;2022-12-29T18:25:19;9.00;99.90
54082;DHT22;39986;50.770;0.266;2022-12-29T18:27:45;9.00;99.90
54082;DHT22;39986;50.770;0.266;2022-12-29T18:30:11;9.00;99.90
54082;DHT22;39986;50.770;0.266;2022-12-29T18:32:36;9.00;99.90
54082;DHT22;39986;50.770;0.266;2022-12-29T18:35:02;9.60;99.90